createdAt,value
2023-04-26T00:01:27.619Z,7.30
2023-04-26T00:03:56.314Z,7.20
2023-04-26T00:06:23.537Z,7.20
2023-04-26T00:08:50.297Z,7.20
2023-04-26T00:11:17.047Z,7.20
2023-04-26T00:13:43.658Z,7.00
2023-04-26T00:16:10.307Z,7.20
2023-04-26T00:18:37.337Z,7.10
2023-04-26T00:21:03.901Z,7.10
2023-04-26T00:23:30.798Z,7.00
2023-04-26T00:25:57.438Z,7.30
2023-04-26T00:28:24.034Z,7.00
2023-04-26T00:30:51.316Z,7.00
2023-04-26T00:33:17.901Z,7.10
2023-04-26T00:35:44.477Z,6.90
2023-04-26T00:38:11.121Z,7.00
2023-04-26T00:40:37.712Z,6.90
2023-04-26T00:43:05.590Z,6.90
2023-04-26T00:45:32.356Z,7.10
2023-04-26T00:48:00.474Z,6.80
2023-04-26T00:50:27.246Z,6.70
2023-04-26T00:52:53.964Z,7.00
2023-04-26T00:55:21.733Z,6.60
2023-04-26T00:57:48.380Z,6.60
2023-04-26T01:00:16.235Z,6.70
2023-04-26T01:02:43.123Z,6.50
2023-04-26T01:05:09.849Z,6.80
2023-04-26T01:07:37.107Z,6.90
2023-04-26T01:10:06.768Z,6.40
2023-04-26T01:12:33.373Z,6.40
2023-04-26T01:15:00.248Z,6.30
2023-04-26T01:17:27.000Z,6.30
2023-04-26T01:19:54.066Z,6.30
2023-04-26T01:22:21.261Z,6.30
2023-04-26T01:24:50.126Z,6.30
2023-04-26T01:27:16.938Z,6.10
2023-04-26T01:29:44.041Z,6.10
2023-04-26T01:32:11.959Z,6.00
2023-04-26T01:34:38.605Z,6.00
2023-04-26T01:37:05.146Z,5.80
2023-04-26T01:39:31.686Z,5.80
2023-04-26T01:42:01.053Z,5.70
2023-04-26T01:44:27.622Z,5.70
2023-04-26T01:46:54.222Z,5.70
2023-04-26T01:49:20.804Z,5.60
2023-04-26T01:51:47.373Z,5.70
2023-04-26T01:54:13.932Z,5.70
2023-04-26T01:59:07.979Z,5.70
2023-04-26T02:01:34.705Z,5.70
2023-04-26T02:06:28.381Z,5.70
2023-04-26T02:08:57.001Z,5.60
2023-04-26T02:11:26.845Z,5.50
2023-04-26T02:21:20.652Z,5.80
2023-04-26T02:36:06.080Z,5.60
2023-04-26T02:53:15.952Z,5.40
2023-04-26T02:55:42.604Z,5.50
2023-04-26T03:00:36.579Z,5.30
2023-04-26T03:03:03.691Z,5.20
2023-04-26T03:05:30.635Z,5.10
2023-04-26T03:07:57.230Z,5.10
2023-04-26T03:17:44.931Z,5.20
2023-04-26T03:22:38.505Z,5.10
2023-04-26T03:25:05.540Z,4.90
2023-04-26T03:42:14.695Z,4.70
2023-04-26T03:44:41.377Z,4.70
2023-04-26T04:04:17.548Z,4.60
2023-04-26T04:06:44.448Z,4.60
2023-04-26T04:14:05.500Z,4.60
2023-04-26T04:58:15.898Z,4.80
2023-04-26T05:25:17.681Z,6.00
2023-04-26T05:27:45.848Z,6.20
2023-04-26T05:32:39.443Z,6.50
2023-04-26T05:35:06.105Z,6.60
2023-04-26T05:37:32.677Z,6.80
2023-04-26T05:39:59.316Z,6.90
2023-04-26T05:42:26.150Z,7.30
2023-04-26T05:44:57.304Z,8.00
2023-04-26T05:47:24.207Z,7.70
2023-04-26T05:49:50.759Z,7.80
2023-04-26T05:52:17.303Z,8.30
2023-04-26T05:54:43.829Z,8.30
2023-04-26T05:57:10.442Z,8.30
2023-04-26T05:59:37.080Z,7.90
2023-04-26T06:02:04.904Z,8.80
2023-04-26T06:04:32.460Z,9.00
2023-04-26T06:07:00.480Z,9.20
2023-04-26T06:09:27.371Z,9.60
2023-04-26T06:11:53.986Z,9.90
2023-04-26T06:14:30.113Z,10.30
2023-04-26T06:16:57.997Z,10.40
2023-04-26T06:19:24.732Z,10.60
2023-04-26T06:21:54.920Z,10.70
2023-04-26T06:24:23.358Z,11.50
2023-04-26T06:26:50.160Z,11.30
2023-04-26T06:29:16.883Z,11.60
2023-04-26T06:31:43.682Z,11.90
2023-04-26T06:34:10.212Z,12.20
2023-04-26T06:36:36.953Z,12.50
2023-04-26T06:39:03.995Z,15.90
2023-04-26T06:41:31.180Z,13.70
2023-04-26T06:43:57.767Z,14.30
2023-04-26T06:46:24.404Z,14.90
2023-04-26T06:48:52.977Z,15.40
2023-04-26T06:51:19.552Z,16.30
2023-04-26T06:53:46.066Z,16.30
2023-04-26T06:56:12.640Z,16.90
2023-04-26T06:58:39.299Z,17.30
2023-04-26T07:01:08.484Z,17.90
2023-04-26T07:03:35.122Z,18.00
2023-04-26T07:06:01.866Z,18.20
2023-04-26T07:10:56.069Z,19.00
2023-04-26T07:13:22.666Z,19.20
2023-04-26T07:15:49.343Z,19.30
2023-04-26T07:18:15.973Z,19.10
2023-04-26T07:20:42.633Z,19.20
2023-04-26T07:23:09.166Z,19.60
2023-04-26T07:25:35.866Z,19.50
2023-04-26T07:28:02.605Z,19.60
2023-04-26T07:30:29.455Z,19.90
2023-04-26T07:32:56.106Z,20.30
2023-04-26T07:35:22.730Z,20.50
2023-04-26T07:37:49.286Z,20.60
2023-04-26T07:40:15.960Z,20.80
2023-04-26T07:42:42.532Z,20.60
2023-04-26T07:45:09.526Z,20.10
2023-04-26T07:47:36.480Z,20.30
2023-04-26T07:50:03.111Z,20.30
2023-04-26T07:52:29.799Z,20.30
2023-04-26T07:54:56.372Z,20.40
2023-04-26T07:57:22.934Z,20.60
2023-04-26T07:59:49.560Z,20.70
2023-04-26T08:02:17.046Z,21.30
2023-04-26T08:04:48.792Z,21.40
2023-04-26T08:07:16.229Z,21.60
2023-04-26T08:09:42.932Z,22.40
2023-04-26T08:12:09.561Z,22.60
2023-04-26T08:14:36.824Z,22.30
2023-04-26T08:17:03.527Z,22.10
2023-04-26T08:19:32.682Z,21.50
2023-04-26T08:21:59.315Z,19.60
2023-04-26T08:24:25.889Z,19.60
2023-04-26T08:26:52.478Z,19.20
2023-04-26T08:29:19.061Z,19.00
2023-04-26T08:31:45.576Z,19.10
2023-04-26T08:34:13.515Z,19.50
2023-04-26T08:36:41.515Z,21.20
2023-04-26T08:39:08.260Z,22.50
2023-04-26T08:41:36.347Z,23.40
2023-04-26T08:44:05.502Z,23.10
2023-04-26T08:46:36.670Z,21.70
2023-04-26T08:49:13.441Z,21.00
2023-04-26T08:51:40.205Z,19.90
2023-04-26T08:54:07.718Z,19.30
2023-04-26T08:56:35.551Z,18.70
2023-04-26T08:59:02.146Z,18.20
2023-04-26T09:01:29.638Z,17.30
2023-04-26T09:03:57.152Z,17.10
2023-04-26T09:06:24.310Z,16.70
2023-04-26T09:13:44.892Z,16.40
2023-04-26T09:16:11.640Z,18.30
2023-04-26T09:18:47.378Z,19.70
2023-04-26T09:21:17.806Z,20.80
2023-04-26T09:23:57.205Z,20.60
2023-04-26T09:26:23.779Z,20.40
2023-04-26T09:28:50.848Z,21.40
2023-04-26T09:31:40.701Z,22.60
2023-04-26T09:34:07.930Z,22.90
2023-04-26T09:36:46.537Z,24.00
2023-04-26T09:39:13.221Z,24.30
2023-04-26T09:41:44.689Z,23.20
2023-04-26T09:44:21.044Z,23.20
2023-04-26T09:47:06.672Z,24.50
2023-04-26T09:49:42.746Z,25.40
2023-04-26T09:52:09.287Z,24.40
2023-04-26T09:54:46.713Z,23.30
2023-04-26T09:57:14.282Z,22.20
2023-04-26T09:59:47.902Z,21.10
2023-04-26T10:02:14.661Z,20.20
2023-04-26T10:04:41.875Z,19.70
2023-04-26T10:07:09.094Z,19.40
2023-04-26T10:09:36.350Z,19.70
2023-04-26T10:12:03.395Z,20.60
2023-04-26T10:14:30.313Z,20.60
2023-04-26T10:16:57.367Z,21.70
2023-04-26T10:19:24.083Z,22.60
2023-04-26T10:21:51.343Z,22.10
2023-04-26T10:24:18.420Z,21.50
2023-04-26T10:26:52.820Z,21.40
2023-04-26T10:29:20.473Z,21.50
2023-04-26T10:32:03.228Z,20.50
2023-04-26T10:34:33.863Z,19.80
2023-04-26T10:37:06.651Z,19.40
2023-04-26T10:39:33.223Z,19.10
2023-04-26T10:42:24.212Z,18.70
2023-04-26T10:44:52.410Z,18.80
2023-04-26T10:47:36.436Z,18.70
2023-04-26T10:50:10.072Z,18.30
2023-04-26T10:52:38.616Z,18.30
2023-04-26T10:55:06.675Z,18.80
2023-04-26T10:57:52.593Z,20.60
2023-04-26T11:00:21.409Z,22.30
2023-04-26T11:02:56.143Z,23.40
2023-04-26T11:05:42.694Z,23.10
2023-04-26T11:08:16.232Z,22.10
2023-04-26T11:10:43.312Z,21.50
2023-04-26T11:13:09.890Z,20.80
2023-04-26T11:15:36.822Z,20.30
2023-04-26T11:18:04.503Z,20.10
2023-04-26T11:20:32.127Z,20.00
2023-04-26T11:22:59.359Z,20.40
2023-04-26T11:25:27.949Z,21.30
2023-04-26T11:27:59.616Z,21.20
2023-04-26T11:30:27.957Z,21.20
2023-04-26T11:32:55.059Z,21.30
2023-04-26T11:35:23.082Z,20.80
2023-04-26T11:37:51.772Z,20.30
2023-04-26T11:40:18.529Z,20.80
2023-04-26T11:42:45.582Z,21.20
2023-04-26T11:45:12.533Z,21.20
2023-04-26T11:47:39.396Z,20.80
2023-04-26T11:50:07.034Z,18.40
2023-04-26T11:52:33.771Z,20.10
2023-04-26T11:55:06.856Z,20.00
2023-04-26T11:57:34.296Z,20.30
2023-04-26T12:00:08.909Z,20.30
2023-04-26T12:02:36.082Z,20.50
2023-04-26T12:05:04.286Z,20.40
2023-04-26T12:07:37.822Z,20.50
2023-04-26T12:10:14.080Z,20.40
2023-04-26T12:12:43.756Z,21.20
2023-04-26T12:15:11.793Z,21.60
2023-04-26T12:17:39.831Z,21.60
2023-04-26T12:20:12.974Z,21.70
2023-04-26T12:22:39.591Z,21.70
2023-04-26T12:25:06.877Z,22.30
2023-04-26T12:27:33.570Z,23.00
2023-04-26T12:30:00.380Z,23.80
2023-04-26T12:32:27.007Z,23.80
2023-04-26T12:34:53.772Z,23.90
2023-04-26T12:37:20.364Z,24.00
2023-04-26T12:39:47.327Z,24.10
2023-04-26T12:42:13.903Z,24.30
2023-04-26T12:44:40.621Z,23.60
2023-04-26T12:47:07.304Z,23.00
2023-04-26T12:49:33.955Z,22.50
2023-04-26T12:52:00.672Z,22.80
2023-04-26T12:54:27.460Z,22.40
2023-04-26T12:56:53.978Z,22.30
2023-04-26T12:59:20.666Z,23.10
2023-04-26T13:01:47.596Z,22.80
2023-04-26T13:04:15.561Z,22.30
2023-04-26T13:06:42.370Z,21.60
2023-04-26T13:09:09.031Z,21.30
2023-04-26T13:11:35.833Z,21.60
2023-04-26T13:14:02.443Z,22.30
2023-04-26T13:16:29.058Z,22.50
2023-04-26T13:18:56.324Z,23.00
2023-04-26T13:21:22.990Z,23.50
2023-04-26T13:23:49.518Z,24.00
2023-04-26T13:26:18.256Z,23.70
2023-04-26T13:28:44.932Z,24.00
2023-04-26T13:31:11.918Z,23.60
2023-04-26T13:33:38.546Z,23.50
2023-04-26T13:36:05.152Z,23.50
2023-04-26T13:38:32.942Z,24.10
2023-04-26T13:40:59.730Z,23.30
2023-04-26T13:43:26.360Z,22.60
2023-04-26T13:45:52.999Z,21.60
2023-04-26T13:48:19.598Z,21.00
2023-04-26T13:50:46.208Z,21.10
2023-04-26T13:53:12.772Z,21.10
2023-04-26T13:55:39.320Z,20.70
2023-04-26T13:58:05.872Z,21.00
2023-04-26T14:00:32.564Z,21.50
2023-04-26T14:02:59.233Z,21.80
2023-04-26T14:05:26.244Z,22.40
2023-04-26T14:07:54.983Z,22.30
2023-04-26T14:10:21.920Z,22.10
2023-04-26T14:12:48.609Z,21.30
2023-04-26T14:15:15.174Z,20.80
2023-04-26T14:17:42.093Z,20.40
2023-04-26T14:20:10.298Z,20.80
2023-04-26T14:22:36.963Z,20.80
2023-04-26T14:25:03.918Z,20.60
2023-04-26T14:27:30.556Z,20.40
2023-04-26T14:29:57.173Z,20.20
2023-04-26T14:32:23.769Z,19.60
2023-04-26T14:34:50.640Z,19.50
2023-04-26T14:37:17.296Z,18.90
2023-04-26T14:39:43.907Z,18.80
2023-04-26T14:42:11.317Z,18.90
2023-04-26T14:44:37.886Z,19.20
2023-04-26T14:47:04.476Z,19.00
2023-04-26T14:49:31.449Z,19.00
2023-04-26T14:51:58.243Z,19.10
2023-04-26T14:54:25.300Z,19.00
2023-04-26T14:56:51.872Z,18.80
2023-04-26T14:59:18.530Z,18.90
2023-04-26T15:01:45.173Z,18.80
2023-04-26T15:04:11.884Z,18.70
2023-04-26T15:06:39.025Z,18.80
2023-04-26T15:09:08.531Z,18.90
2023-04-26T15:11:35.420Z,18.90
2023-04-26T15:14:01.987Z,18.80
2023-04-26T15:16:28.635Z,18.80
2023-04-26T15:18:55.594Z,18.70
2023-04-26T15:21:22.377Z,18.70
2023-04-26T15:23:49.167Z,18.80
2023-04-26T15:26:15.752Z,18.70
2023-04-26T15:28:42.432Z,18.20
2023-04-26T15:31:09.543Z,18.60
2023-04-26T15:33:36.614Z,18.60
2023-04-26T15:36:03.307Z,18.40
2023-04-26T15:38:30.087Z,18.10
2023-04-26T15:40:56.719Z,17.80
2023-04-26T15:43:23.830Z,17.50
2023-04-26T15:45:50.665Z,17.40
2023-04-26T15:48:17.520Z,17.60
2023-04-26T15:50:44.095Z,17.80
2023-04-26T15:53:11.094Z,17.90
2023-04-26T15:55:37.767Z,18.10
2023-04-26T15:58:04.481Z,18.20
2023-04-26T16:00:32.066Z,18.10
2023-04-26T16:02:58.744Z,18.10
2023-04-26T16:05:25.383Z,17.80
2023-04-26T16:07:51.943Z,17.60
2023-04-26T16:10:18.490Z,17.40
2023-04-26T16:12:45.221Z,17.20
2023-04-26T16:15:11.924Z,17.10
2023-04-26T16:17:39.441Z,17.00
2023-04-26T16:20:07.134Z,17.00
2023-04-26T16:22:34.469Z,16.70
2023-04-26T16:25:02.662Z,16.70
2023-04-26T16:27:29.273Z,16.70
2023-04-26T16:29:55.876Z,16.70
2023-04-26T16:32:22.645Z,16.60
2023-04-26T16:34:49.276Z,16.40
2023-04-26T16:37:15.988Z,16.20
2023-04-26T16:39:42.563Z,16.20
2023-04-26T16:42:09.086Z,16.10
2023-04-26T16:44:35.652Z,16.00
2023-04-26T16:47:02.230Z,16.00
2023-04-26T16:49:28.811Z,15.80
2023-04-26T16:51:58.866Z,15.50
2023-04-26T16:54:25.860Z,15.50
2023-04-26T16:56:52.506Z,15.20
2023-04-26T16:59:19.372Z,15.10
2023-04-26T17:04:16.152Z,14.90
2023-04-26T17:06:44.302Z,14.70
2023-04-26T17:11:43.232Z,14.60
2023-04-26T17:14:09.930Z,14.60
2023-04-26T17:16:36.623Z,14.60
2023-04-26T17:21:31.872Z,14.40
2023-04-26T17:23:58.494Z,14.20
2023-04-26T17:26:25.077Z,14.30
2023-04-26T17:28:52.134Z,14.10
2023-04-26T17:31:18.907Z,14.00
2023-04-26T17:33:45.548Z,13.90
2023-04-26T17:36:12.546Z,14.80
2023-04-26T17:38:39.094Z,13.70
2023-04-26T17:41:05.679Z,13.60
2023-04-26T17:43:32.235Z,13.50
2023-04-26T17:45:58.916Z,13.40
2023-04-26T17:48:25.520Z,13.30
2023-04-26T17:50:52.923Z,13.20
2023-04-26T17:53:19.927Z,13.10
2023-04-26T17:55:46.696Z,13.10
2023-04-26T18:05:34.663Z,12.90
2023-04-26T18:08:01.241Z,12.90
2023-04-26T18:10:27.864Z,12.80
2023-04-26T18:12:54.404Z,12.50
2023-04-26T18:15:21.076Z,12.40
2023-04-26T18:17:47.749Z,12.50
2023-04-26T18:20:14.484Z,12.30
2023-04-26T18:22:41.640Z,12.30
2023-04-26T18:25:08.465Z,12.30
2023-04-26T18:30:02.204Z,12.10
2023-04-26T18:42:18.911Z,11.70
2023-04-26T18:52:08.722Z,11.40
2023-04-26T18:54:35.920Z,11.30
2023-04-26T18:57:03.560Z,11.30
2023-04-26T18:59:30.248Z,11.20
2023-04-26T19:04:24.435Z,11.10
2023-04-26T19:06:51.256Z,11.00
2023-04-26T19:09:17.824Z,11.00
2023-04-26T19:11:44.391Z,11.00
2023-04-26T19:14:10.937Z,10.90
2023-04-26T19:16:38.419Z,10.80
2023-04-26T19:19:05.620Z,10.80
2023-04-26T19:21:32.489Z,10.70
2023-04-26T19:23:59.041Z,10.60
2023-04-26T19:26:25.751Z,10.60
2023-04-26T19:28:52.329Z,10.60
2023-04-26T19:31:19.029Z,10.60
2023-04-26T19:33:46.013Z,10.40
2023-04-26T19:36:12.638Z,10.40
2023-04-26T19:38:39.385Z,10.30
2023-04-26T19:41:06.045Z,10.20
2023-04-26T19:43:32.704Z,10.20
2023-04-26T19:45:59.334Z,10.10
2023-04-26T19:48:26.426Z,10.00
2023-04-26T19:50:53.182Z,10.00
2023-04-26T19:53:19.852Z,9.90
2023-04-26T19:55:46.413Z,9.80
2023-04-26T19:58:13.041Z,9.90
2023-04-26T20:00:40.486Z,9.90
2023-04-26T20:03:07.842Z,9.80
2023-04-26T20:05:34.675Z,9.80
2023-04-26T20:08:01.454Z,9.80
2023-04-26T20:10:31.932Z,9.70
2023-04-26T20:12:59.298Z,9.60
2023-04-26T20:15:26.372Z,9.50
2023-04-26T20:17:53.156Z,9.50
2023-04-26T20:20:19.912Z,9.40
2023-04-26T20:22:47.034Z,9.30
2023-04-26T20:25:13.754Z,9.30
2023-04-26T20:27:40.517Z,9.30
2023-04-26T20:30:07.558Z,9.20
2023-04-26T20:32:34.280Z,9.10
2023-04-26T20:35:00.854Z,9.00
2023-04-26T20:37:27.728Z,9.00
2023-04-26T20:39:54.458Z,9.10
2023-04-26T20:42:22.013Z,9.00
2023-04-26T20:44:48.604Z,9.00
2023-04-26T20:47:15.459Z,8.90
2023-04-26T20:49:42.134Z,8.80
2023-04-26T20:52:08.953Z,8.70
2023-04-26T20:54:35.683Z,8.60
2023-04-26T20:57:03.912Z,8.50
2023-04-26T20:59:30.839Z,8.40
2023-04-26T21:01:57.589Z,8.30
2023-04-26T21:04:24.703Z,8.30
2023-04-26T21:06:51.540Z,8.30
2023-04-26T21:09:18.140Z,8.20
2023-04-26T21:11:44.788Z,8.10
2023-04-26T21:14:13.559Z,8.00
2023-04-26T21:16:40.427Z,7.90
2023-04-26T21:19:08.063Z,7.90
2023-04-26T21:21:34.916Z,7.90
2023-04-26T21:24:02.474Z,7.70
2023-04-26T21:26:29.161Z,7.60
2023-04-26T21:28:55.941Z,7.60
2023-04-26T21:31:22.573Z,7.60
2023-04-26T21:33:49.332Z,7.60
2023-04-26T21:36:16.586Z,7.60
2023-04-26T21:38:43.142Z,7.60
2023-04-26T21:41:09.829Z,7.60
2023-04-26T21:43:36.459Z,7.60
2023-04-26T21:46:03.448Z,7.60
2023-04-26T21:48:30.021Z,7.70
2023-04-26T21:50:57.014Z,7.60
2023-04-26T21:53:23.655Z,7.60
2023-04-26T21:55:51.855Z,7.60
2023-04-26T21:58:18.902Z,7.60
2023-04-26T22:00:46.570Z,7.60
2023-04-26T22:03:13.926Z,7.60
2023-04-26T22:05:40.903Z,7.60
2023-04-26T22:08:07.670Z,7.50
2023-04-26T22:10:34.549Z,7.50
2023-04-26T22:13:01.173Z,7.60
2023-04-26T22:15:27.942Z,7.50
2023-04-26T22:17:54.624Z,7.60
2023-04-26T22:20:21.651Z,7.60
2023-04-26T22:22:48.506Z,7.50
2023-04-26T22:25:15.074Z,7.50
2023-04-26T22:27:41.718Z,7.50
2023-04-26T22:30:22.764Z,7.40
2023-04-26T22:32:55.521Z,7.40
2023-04-26T22:35:23.126Z,7.40
2023-04-26T22:37:50.098Z,7.40
2023-04-26T22:40:16.750Z,7.40
2023-04-26T22:42:43.873Z,7.30
2023-04-26T22:45:10.825Z,7.30
2023-04-26T22:47:37.597Z,7.20
2023-04-26T22:50:05.058Z,7.40
2023-04-26T22:52:32.316Z,7.50
2023-04-26T22:55:00.028Z,7.40
2023-04-26T22:57:27.082Z,7.50
2023-04-26T22:59:53.671Z,7.40
2023-04-26T23:02:20.930Z,7.40
2023-04-26T23:04:47.730Z,7.40
2023-04-26T23:07:14.386Z,7.40
2023-04-26T23:09:41.220Z,7.30
2023-04-26T23:12:07.832Z,7.30
2023-04-26T23:14:35.113Z,7.20
2023-04-26T23:17:02.715Z,7.20
2023-04-26T23:19:29.526Z,7.20
2023-04-26T23:21:56.457Z,7.20
2023-04-26T23:24:23.159Z,7.20
2023-04-26T23:26:49.759Z,7.10
2023-04-26T23:29:16.316Z,7.10
2023-04-26T23:31:43.065Z,7.10
2023-04-26T23:34:09.732Z,7.10
2023-04-26T23:36:36.428Z,7.00
2023-04-26T23:39:03.340Z,7.00
2023-04-26T23:41:29.918Z,7.00
2023-04-26T23:43:56.714Z,7.00
2023-04-26T23:46:23.315Z,6.90
2023-04-26T23:48:49.929Z,6.90
2023-04-26T23:51:16.510Z,6.60
2023-04-26T23:53:43.867Z,6.90
2023-04-26T23:56:10.592Z,7.00
2023-04-26T23:58:37.196Z,6.90
